This is the latest recevied weather packets stored in our database for station/object W7MKM-13. If no packets are shown the sender has not sent any weather packets the latest 10 day(s).
| Time | Temp. | Humidity | Pressure | Rain* | Wind** | Luminosity | Snow |
|---|---|---|---|---|---|---|---|
| 1777132215 | 8.89° C | 32% | 1011 hPa | 0 mm | - | 619 W/m² | - |
| 1777131915 | 8.89° C | 31% | 1011 hPa | 0 mm | - | 610 W/m² | - |
| 1777131015 | 8.89° C | 32% | 1011 hPa | 0 mm | - | 415 W/m² | - |
| 1777128316 | 7.22° C | 39% | 1011.4 hPa | 0 mm | - | 394 W/m² | - |
| 1777127115 | 6.11° C | 40% | 1011.4 hPa | 0 mm | - | 319 W/m² | - |
| 1777125916 | 4.44° C | 46% | 1011.1 hPa | 0 mm | - | 295 W/m² | - |
| 1777124415 | 3.33° C | 50% | 1010.5 hPa | 0 mm | - | 122 W/m² | - |
| 1777123815 | 2.78° C | 53% | 1010.4 hPa | 0 mm | - | 85 W/m² | - |
| 1777117816 | 2.22° C | 57% | 1011 hPa | 0 mm | - | 0 W/m² | - |
| 1777117515 | 2.22° C | 57% | 1011 hPa | 0 mm | - | 0 W/m² | - |
| 1777112415 | 3.89° C | 52% | 1011.1 hPa | 0 mm | - | 0 W/m² | - |
| 1777110915 | 4.44° C | 50% | 1011.4 hPa | 0 mm | - | 0 W/m² | - |
| 1777108515 | 5.56° C | 45% | 1011.2 hPa | 0 mm | - | 0 W/m² | - |
| 1777107315 | 5.56° C | 43% | 1011.1 hPa | 0 mm | - | 0 W/m² | - |
| 1777106415 | 5.56° C | 43% | 1011.1 hPa | 0 mm | - | 0 W/m² | - |
| 1777106116 | 5.56° C | 43% | 1011 hPa | 0 mm | - | 0 W/m² | - |
| 1777104915 | 5.56° C | 41% | 1010.8 hPa | 0 mm | - | 0 W/m² | - |
| 1777100415 | 6.67° C | 34% | 1011.3 hPa | 0 mm | - | 0 W/m² | - |
| 1777100115 | 6.67° C | 33% | 1011.4 hPa | 0 mm | - | 0 W/m² | - |
| 1777099515 | 6.67° C | 32% | 1011.2 hPa | 0 mm | - | 0 W/m² | - |
| 1777099215 | 6.67° C | 32% | 1011.2 hPa | 0 mm | - | 0 W/m² | - |
| 1777098315 | 6.67° C | 32% | 1011.2 hPa | 0 mm | - | 0 W/m² | - |
| 1777095916 | 7.22° C | 38% | 1010.9 hPa | 0 mm | - | 0 W/m² | - |
| 1777093216 | 7.78° C | 44% | 1010.6 hPa | 0 mm | - | 0 W/m² | - |
| 1777092016 | 8.33° C | 42% | 1010.4 hPa | 0 mm | - | 0 W/m² | - |
* Rain latest hour (hover to see other rain measurements)
** Current wind speed in m/s (hover to see current wind gust speed)